createdAt,value
2022-12-03T00:00:12.805Z,9.32
2022-12-03T00:05:05.441Z,7.93
2022-12-03T00:09:57.252Z,8.75
2022-12-03T00:14:48.933Z,6.82
2022-12-03T00:19:40.638Z,6.32
2022-12-03T00:24:32.510Z,6.28
2022-12-03T00:29:24.327Z,5.50
2022-12-03T00:34:15.962Z,5.60
2022-12-03T00:39:07.706Z,6.82
2022-12-03T00:43:59.378Z,5.40
2022-12-03T00:48:51.119Z,6.05
2022-12-03T00:53:42.805Z,7.05
2022-12-03T00:58:34.543Z,4.97
2022-12-03T01:03:26.724Z,7.07
2022-12-03T01:08:18.528Z,6.80
2022-12-03T01:13:10.786Z,7.28
2022-12-03T01:18:02.427Z,6.88
2022-12-03T01:22:54.388Z,7.65
2022-12-03T01:27:46.058Z,6.35
2022-12-03T01:32:37.839Z,5.78
2022-12-03T01:37:29.710Z,5.63
2022-12-03T01:42:27.272Z,5.53
2022-12-03T01:47:22.502Z,5.73
2022-12-03T01:52:18.661Z,5.78
2022-12-03T01:57:24.610Z,5.32
2022-12-03T02:02:23.887Z,4.35
2022-12-03T02:07:21.818Z,5.85
2022-12-03T02:12:17.038Z,5.63
2022-12-03T02:17:08.859Z,5.18
2022-12-03T02:22:19.740Z,4.22
2022-12-03T02:27:11.657Z,4.00
2022-12-03T02:32:03.880Z,4.05
2022-12-03T02:36:55.628Z,4.00
2022-12-03T02:42:06.052Z,3.63
2022-12-03T02:46:57.763Z,4.07
2022-12-03T02:51:49.708Z,4.60
2022-12-03T02:56:41.511Z,3.55
2022-12-03T03:01:35.120Z,4.45
2022-12-03T03:06:26.971Z,3.83
2022-12-03T03:11:18.749Z,3.70
2022-12-03T03:16:10.753Z,4.30
2022-12-03T03:21:03.882Z,4.78
2022-12-03T03:26:13.442Z,4.25
2022-12-03T03:31:08.347Z,5.88
2022-12-03T03:36:01.279Z,4.82
2022-12-03T03:40:53.618Z,5.65
2022-12-03T03:45:45.536Z,6.00
2022-12-03T03:50:37.411Z,6.55
2022-12-03T03:55:30.114Z,5.20
2022-12-03T04:00:21.946Z,5.75
2022-12-03T04:05:19.532Z,5.28
2022-12-03T04:10:38.094Z,5.80
2022-12-03T04:15:29.928Z,5.95
2022-12-03T04:20:21.770Z,5.25
2022-12-03T04:25:32.250Z,6.85
2022-12-03T04:30:24.038Z,5.95
2022-12-03T04:35:34.543Z,6.43
2022-12-03T04:40:45.010Z,7.53
2022-12-03T04:45:36.878Z,7.47
2022-12-03T04:50:28.616Z,6.07
2022-12-03T04:55:20.234Z,6.20
2022-12-03T05:00:12.774Z,6.07
2022-12-03T05:05:04.738Z,6.45
2022-12-03T05:09:56.663Z,6.93
2022-12-03T05:14:48.383Z,7.13
2022-12-03T05:19:58.738Z,8.18
2022-12-03T05:24:50.395Z,7.95
2022-12-03T05:29:42.154Z,7.13
2022-12-03T05:34:33.883Z,6.97
2022-12-03T05:39:25.582Z,6.95
2022-12-03T05:44:20.417Z,7.78
2022-12-03T05:49:12.636Z,7.40
2022-12-03T05:54:04.441Z,7.30
2022-12-03T05:58:56.157Z,7.15
2022-12-03T06:03:48.109Z,6.38
2022-12-03T06:08:40.056Z,6.50
2022-12-03T06:13:31.716Z,5.43
2022-12-03T06:18:23.388Z,4.53
2022-12-03T06:23:15.143Z,5.22
2022-12-03T06:28:07.509Z,4.72
2022-12-03T06:32:59.246Z,4.05
2022-12-03T06:37:50.961Z,5.10
2022-12-03T06:42:42.749Z,5.10
2022-12-03T06:47:34.595Z,4.82
2022-12-03T06:52:26.311Z,4.22
2022-12-03T06:57:18.173Z,5.38
2022-12-03T07:02:11.897Z,6.00
2022-12-03T07:07:03.691Z,5.38
2022-12-03T07:11:55.539Z,4.25
2022-12-03T07:16:47.698Z,4.40
2022-12-03T07:21:39.857Z,5.03
2022-12-03T07:26:31.657Z,4.30
2022-12-03T07:31:23.692Z,4.55
2022-12-03T07:36:15.437Z,4.95
2022-12-03T07:41:07.337Z,4.05
2022-12-03T07:45:59.010Z,4.53
2022-12-03T07:50:50.834Z,4.75
2022-12-03T07:55:42.557Z,5.35
2022-12-03T08:00:34.468Z,5.13
2022-12-03T08:05:27.013Z,3.72
2022-12-03T08:10:18.888Z,4.28
2022-12-03T08:15:20.616Z,4.25
2022-12-03T08:20:16.534Z,4.35
2022-12-03T08:25:20.521Z,3.47
2022-12-03T08:30:15.610Z,3.63
2022-12-03T08:35:27.972Z,4.00
2022-12-03T08:40:28.275Z,3.05
2022-12-03T08:45:29.731Z,2.72
2022-12-03T08:50:33.839Z,3.40
2022-12-03T08:55:37.095Z,3.78
2022-12-03T09:00:28.725Z,3.42
2022-12-03T09:05:24.071Z,3.25
2022-12-03T09:10:15.821Z,2.97
2022-12-03T09:15:08.331Z,4.03
2022-12-03T09:19:59.960Z,4.93
2022-12-03T09:24:52.267Z,4.03
2022-12-03T09:29:44.156Z,3.08
2022-12-03T09:34:35.911Z,4.00
2022-12-03T09:39:27.711Z,3.38
2022-12-03T09:44:19.460Z,3.15
2022-12-03T09:49:15.969Z,3.50
2022-12-03T09:54:08.090Z,2.53
2022-12-03T09:59:00.196Z,2.80
2022-12-03T10:03:53.004Z,3.25
2022-12-03T10:08:48.577Z,3.72
2022-12-03T10:13:40.854Z,4.05
2022-12-03T10:18:41.262Z,4.13
2022-12-03T10:23:33.580Z,3.28
2022-12-03T10:28:46.973Z,3.20
2022-12-03T10:33:45.859Z,2.50
2022-12-03T10:38:37.651Z,2.50
2022-12-03T10:43:29.372Z,1.75
2022-12-03T10:48:27.677Z,1.92
2022-12-03T10:53:21.975Z,1.88
2022-12-03T10:58:29.614Z,1.88
2022-12-03T11:03:27.507Z,2.00
2022-12-03T11:08:22.652Z,2.58
2022-12-03T11:13:29.272Z,1.60
2022-12-03T11:18:39.165Z,1.95
2022-12-03T11:23:46.159Z,2.42
2022-12-03T11:28:47.220Z,1.95
2022-12-03T11:33:40.825Z,1.98
2022-12-03T11:38:38.453Z,1.63
2022-12-03T11:43:52.250Z,1.77
2022-12-03T11:48:49.347Z,1.23
2022-12-03T11:53:41.116Z,1.15
2022-12-03T11:58:34.134Z,1.13
2022-12-03T12:03:42.359Z,1.35
2022-12-03T12:08:40.399Z,0.40
2022-12-03T12:13:32.231Z,0.52
2022-12-03T12:18:55.062Z,0.50
2022-12-03T12:23:47.243Z,0.50
2022-12-03T12:28:38.980Z,0.50
2022-12-03T12:33:33.234Z,0.40
2022-12-03T12:38:25.052Z,0.40
2022-12-03T12:43:24.286Z,0.30
2022-12-03T12:48:31.231Z,0.40
2022-12-03T12:53:32.315Z,0.40
2022-12-03T12:58:24.492Z,0.40
2022-12-03T13:03:18.129Z,0.50
2022-12-03T13:08:28.470Z,0.50
2022-12-03T13:13:23.284Z,0.40
2022-12-03T13:18:21.667Z,0.38
2022-12-03T13:28:17.943Z,0.50
2022-12-03T13:33:28.540Z,0.60
2022-12-03T13:38:21.630Z,0.40
2022-12-03T13:43:18.958Z,0.35
2022-12-03T13:48:20.394Z,0.40
2022-12-03T13:53:26.788Z,0.50
2022-12-03T13:58:18.698Z,0.47
2022-12-03T14:03:10.707Z,0.50
2022-12-03T14:08:02.528Z,0.52
2022-12-03T14:12:54.857Z,0.50
2022-12-03T14:17:46.645Z,0.50
2022-12-03T14:22:39.187Z,0.50
2022-12-03T14:27:30.890Z,0.50
2022-12-03T14:32:22.850Z,0.50
2022-12-03T14:37:15.315Z,0.70
2022-12-03T14:42:13.349Z,0.45
2022-12-03T14:47:05.312Z,0.70
2022-12-03T14:51:57.387Z,0.60
2022-12-03T14:56:49.326Z,0.50
2022-12-03T15:01:41.085Z,0.80
2022-12-03T15:06:33.154Z,0.60
2022-12-03T15:11:25.538Z,0.70
2022-12-03T15:16:17.965Z,0.77
2022-12-03T15:21:09.874Z,0.68
2022-12-03T15:26:01.502Z,0.70
2022-12-03T15:30:53.784Z,0.43
2022-12-03T15:35:46.025Z,0.52
2022-12-03T15:40:38.725Z,1.05
2022-12-03T15:45:30.383Z,0.68
2022-12-03T15:50:22.265Z,0.70
2022-12-03T15:55:14.192Z,1.00
2022-12-03T16:00:07.009Z,0.82
2022-12-03T16:04:58.724Z,0.60
2022-12-03T16:09:50.454Z,1.00
2022-12-03T16:14:42.128Z,0.65
2022-12-03T16:19:34.361Z,0.82
2022-12-03T16:24:26.160Z,1.00
2022-12-03T16:29:17.839Z,1.00
2022-12-03T16:34:09.552Z,1.17
2022-12-03T16:39:01.273Z,1.10
2022-12-03T16:43:53.098Z,1.25
2022-12-03T16:48:44.882Z,1.63
2022-12-03T16:53:36.864Z,1.10
2022-12-03T16:58:28.582Z,1.10
2022-12-03T17:03:21.459Z,1.17
2022-12-03T17:08:14.006Z,1.35
2022-12-03T17:13:10.310Z,1.27
2022-12-03T17:18:05.796Z,1.50
2022-12-03T17:22:58.174Z,1.35
2022-12-03T17:27:49.863Z,1.30
2022-12-03T17:32:41.811Z,1.42
2022-12-03T17:37:33.619Z,1.33
2022-12-03T17:42:25.362Z,1.40
2022-12-03T17:47:17.202Z,1.65
2022-12-03T17:52:11.548Z,1.55
2022-12-03T17:57:03.319Z,1.40
2022-12-03T18:01:55.056Z,1.45
2022-12-03T18:06:46.839Z,1.42
2022-12-03T18:11:38.621Z,1.35
2022-12-03T18:16:30.497Z,1.63
2022-12-03T18:21:22.205Z,1.63
2022-12-03T18:26:14.054Z,1.48
2022-12-03T18:31:17.582Z,1.15
2022-12-03T18:36:18.719Z,1.88
2022-12-03T18:41:10.588Z,1.42
2022-12-03T18:46:04.434Z,1.45
2022-12-03T18:50:56.733Z,1.83
2022-12-03T18:55:48.536Z,2.10
2022-12-03T19:00:40.789Z,1.70
2022-12-03T19:05:34.094Z,1.60
2022-12-03T19:10:26.334Z,2.22
2022-12-03T19:15:18.572Z,1.88
2022-12-03T19:20:11.493Z,2.03
2022-12-03T19:25:04.739Z,1.40
2022-12-03T19:29:57.202Z,1.40
2022-12-03T19:34:49.058Z,1.08
2022-12-03T19:39:40.987Z,1.17
2022-12-03T19:44:32.710Z,1.13
2022-12-03T19:49:25.842Z,0.80
2022-12-03T19:54:18.287Z,1.80
2022-12-03T19:59:12.200Z,4.50
2022-12-03T20:04:04.894Z,1.52
2022-12-03T20:08:58.463Z,1.15
2022-12-03T20:13:55.116Z,1.35
2022-12-03T20:18:48.723Z,1.35
2022-12-03T20:23:41.018Z,1.10
2022-12-03T20:28:32.848Z,1.15
2022-12-03T20:33:24.821Z,1.00
2022-12-03T20:38:16.571Z,1.27
2022-12-03T20:43:08.323Z,1.25
2022-12-03T20:48:00.038Z,1.10
2022-12-03T20:53:09.716Z,0.88
2022-12-03T20:58:03.663Z,1.00
2022-12-03T21:02:55.560Z,0.98
2022-12-03T21:07:52.459Z,0.60
2022-12-03T21:12:44.303Z,0.70
2022-12-03T21:17:36.099Z,0.65
2022-12-03T21:22:27.948Z,0.90
2022-12-03T21:27:21.878Z,0.80
2022-12-03T21:32:14.115Z,0.60
2022-12-03T21:37:05.839Z,1.00
2022-12-03T21:42:22.301Z,0.90
2022-12-03T21:47:14.160Z,0.80
2022-12-03T21:52:06.489Z,0.70
2022-12-03T21:56:58.277Z,0.80
2022-12-03T22:01:50.004Z,1.80
2022-12-03T22:06:41.776Z,0.70
2022-12-03T22:11:33.470Z,0.70
2022-12-03T22:16:25.334Z,0.70
2022-12-03T22:21:19.705Z,0.95
2022-12-03T22:26:14.067Z,0.70
2022-12-03T22:31:07.809Z,0.60
2022-12-03T22:36:02.891Z,1.02
2022-12-03T22:40:54.799Z,0.80
2022-12-03T22:45:46.900Z,0.88
2022-12-03T22:50:43.797Z,0.80
2022-12-03T22:55:35.562Z,1.30
2022-12-03T23:00:36.118Z,1.42
2022-12-03T23:05:32.414Z,1.40
2022-12-03T23:10:24.185Z,1.13
2022-12-03T23:15:15.957Z,0.90
2022-12-03T23:20:08.499Z,0.70
2022-12-03T23:25:00.334Z,0.63
2022-12-03T23:29:52.405Z,0.70
2022-12-03T23:34:44.321Z,0.70
2022-12-03T23:39:36.175Z,0.52
2022-12-03T23:44:28.339Z,0.60
2022-12-03T23:49:20.070Z,0.50
2022-12-03T23:54:12.374Z,0.75
2022-12-03T23:59:04.182Z,0.47
